Time;durP1;ratioP1;P1;durP2;ratioP2;P2;SDS_P1;SDS_P2;PMS_P1;PMS_P2;Temp;Humidity;BMP_temperature;BMP_pressure;BME280_temperature;BME280_humidity;BME280_pressure;Samples;Min_cycle;Max_cycle;Signal;HPM_P1;HPM_P2
2021/01/10 00:00:33;;;;;;;6.40;5.80;;;;;;;6.70;66.81;93834.31;4958937;28;20410;-80
2021/01/10 00:02:59;;;;;;;7.95;4.90;;;;;;;6.70;66.62;93829.06;4958012;28;20027;-78
2021/01/10 00:05:28;;;;;;;6.10;4.82;;;;;;;6.71;66.51;93820.16;4959834;28;20033;-78
2021/01/10 00:07:56;;;;;;;5.15;4.65;;;;;;;6.76;66.39;93814.91;4959043;28;20603;-78
2021/01/10 00:10:21;;;;;;;6.10;5.50;;;;;;;6.76;66.29;93801.78;4955937;28;20047;-78
2021/01/10 00:12:47;;;;;;;7.43;6.63;;;;;;;6.75;66.39;93808.06;4960957;28;20233;-78
2021/01/10 00:15:15;;;;;;;7.10;5.90;;;;;;;6.81;66.55;93814.91;4954093;28;21742;-81
2021/01/10 00:17:46;;;;;;;9.55;5.82;;;;;;;6.70;66.19;93813.31;4961021;28;20054;-79
2021/01/10 00:20:13;;;;;;;12.35;8.60;;;;;;;6.71;66.35;93830.66;4958334;28;20037;-77
2021/01/10 00:22:39;;;;;;;14.45;10.70;;;;;;;6.67;66.37;93829.63;4968597;28;20054;-78
2021/01/10 00:25:06;;;;;;;12.85;9.25;;;;;;;6.60;66.60;93818.59;4954190;28;20407;-78
2021/01/10 00:27:31;;;;;;;9.07;6.90;;;;;;;6.67;66.44;93829.63;4958793;28;20047;-78
2021/01/10 00:29:57;;;;;;;7.80;6.82;;;;;;;6.67;66.50;93829.63;4957016;28;20097;-78
2021/01/10 00:32:22;;;;;;;10.10;7.38;;;;;;;6.63;66.71;93829.38;4959334;28;20122;-78
2021/01/10 00:34:48;;;;;;;8.02;6.95;;;;;;;6.58;67.04;93844.31;4959064;28;20038;-78
2021/01/10 00:37:17;;;;;;;7.40;6.03;;;;;;;6.58;66.92;93849.56;4953123;28;20062;-78
2021/01/10 00:39:43;;;;;;;7.38;5.82;;;;;;;6.57;66.98;93848.00;4956625;28;20043;-78
2021/01/10 00:42:13;;;;;;;7.50;5.65;;;;;;;6.50;67.16;93843.78;4953494;28;20030;-78
2021/01/10 00:44:40;;;;;;;6.82;5.72;;;;;;;6.42;67.54;93827.78;4960968;28;20499;-78
2021/01/10 00:47:05;;;;;;;6.13;5.53;;;;;;;6.40;67.36;93822.00;4969892;28;20050;-78
2021/01/10 00:49:31;;;;;;;5.57;5.00;;;;;;;6.41;67.48;93832.22;4954660;28;20042;-78
2021/01/10 00:51:58;;;;;;;5.57;5.03;;;;;;;6.25;67.92;93812.28;4957291;28;20038;-78
2021/01/10 00:54:23;;;;;;;16.85;7.30;;;;;;;6.22;67.92;93823.28;4956783;28;20074;-77
2021/01/10 00:56:49;;;;;;;7.93;6.15;;;;;;;6.24;68.13;93823.81;4958165;28;20023;-79
2021/01/10 00:59:15;;;;;;;7.97;6.35;;;;;;;6.14;68.47;93813.31;4959788;28;20414;-77
2021/01/10 01:01:41;;;;;;;9.82;6.22;;;;;;;6.08;68.81;93795.97;4958150;28;20533;-77
2021/01/10 01:04:06;;;;;;;8.25;6.80;;;;;;;6.08;68.92;93801.22;4956525;28;20026;-77
2021/01/10 01:06:32;;;;;;;7.80;7.00;;;;;;;6.09;69.04;93814.09;4960665;28;20141;-77
2021/01/10 01:08:57;;;;;;;13.32;8.45;;;;;;;6.00;69.01;93810.41;4968099;28;20599;-77
2021/01/10 01:11:30;;;;;;;21.77;9.63;;;;;;;6.10;69.08;93820.13;4958294;28;20380;-79
2021/01/10 01:13:56;;;;;;;11.40;8.30;;;;;;;6.06;69.33;93803.31;4954463;28;20042;-79
2021/01/10 01:16:22;;;;;;;14.38;9.48;;;;;;;6.01;69.57;93816.44;4956985;28;20054;-79
2021/01/10 01:18:47;;;;;;;15.32;9.05;;;;;;;6.04;69.56;93815.91;4956744;28;20087;-77
2021/01/10 01:21:20;;;;;;;11.98;7.70;;;;;;;5.95;69.59;93806.97;4957136;28;21904;-77
2021/01/10 01:23:47;;;;;;;13.23;9.40;;;;;;;5.80;69.92;93785.94;4962554;28;20041;-78
2021/01/10 01:26:16;;;;;;;16.25;8.57;;;;;;;5.90;70.01;93805.13;4958037;28;20045;-78
2021/01/10 01:28:45;;;;;;;18.10;9.73;;;;;;;5.86;70.13;93803.25;4961511;28;20043;-77
2021/01/10 01:31:33;;;;;;;18.95;10.57;;;;;;;5.81;70.33;93806.66;4961616;28;20097;-78
2021/01/10 01:33:58;;;;;;;11.55;7.38;;;;;;;5.78;70.60;93801.91;4963952;28;20149;-78
2021/01/10 01:36:27;;;;;;;12.15;8.52;;;;;;;5.70;70.54;93796.41;4960542;28;20440;-77
2021/01/10 01:38:54;;;;;;;53.15;12.38;;;;;;;5.63;70.87;93767.78;4963970;28;20037;-78
2021/01/10 01:41:20;;;;;;;14.63;9.50;;;;;;;5.70;70.65;93762.31;4965151;28;20057;-77
2021/01/10 01:43:46;;;;;;;11.98;8.27;;;;;;;5.74;70.85;93766.78;4963051;28;20538;-77
2021/01/10 01:46:25;;;;;;;11.50;7.82;;;;;;;5.70;70.90;93778.03;4957921;28;20654;-80
2021/01/10 01:48:51;;;;;;;17.90;7.72;;;;;;;5.73;71.13;93785.38;4961812;28;20031;-80
2021/01/10 01:51:19;;;;;;;7.32;6.40;;;;;;;5.71;71.03;93792.72;4959047;28;20043;-80
2021/01/10 01:53:45;;;;;;;20.95;7.38;;;;;;;5.68;71.09;93786.94;4977685;28;20023;-79
2021/01/10 01:56:10;;;;;;;9.02;6.95;;;;;;;5.78;70.87;93799.28;4961930;28;20049;-78
2021/01/10 01:58:36;;;;;;;7.57;5.93;;;;;;;5.89;70.92;93808.00;4960304;28;20050;-79
2021/01/10 02:01:01;;;;;;;17.35;6.40;;;;;;;5.87;70.32;93808.25;4958611;28;20074;-79
2021/01/10 02:03:38;;;;;;;5.97;4.22;;;;;;;5.90;70.33;93830.56;4960882;28;20046;-80
2021/01/10 02:06:10;;;;;;;7.85;5.38;;;;;;;5.96;70.03;93821.69;4957965;28;20027;-80
2021/01/10 02:08:37;;;;;;;8.20;5.93;;;;;;;6.02;69.83;93810.91;4963258;28;20154;-81
2021/01/10 02:11:06;;;;;;;10.02;6.32;;;;;;;6.06;69.52;93803.31;4958367;28;21491;-81
2021/01/10 02:13:34;;;;;;;9.15;5.40;;;;;;;6.14;69.27;93787.06;4960343;28;20034;-81
2021/01/10 02:16:01;;;;;;;7.53;5.93;;;;;;;6.24;69.23;93788.91;4959483;28;20046;-82
2021/01/10 02:18:30;;;;;;;5.57;4.45;;;;;;;6.30;68.73;93787.88;4961624;28;20050;-79
2021/01/10 02:21:01;;;;;;;5.35;3.88;;;;;;;6.31;68.54;93789.44;4962491;28;20018;-80
2021/01/10 02:23:29;;;;;;;4.43;4.03;;;;;;;6.32;68.11;93791.00;4959994;28;20046;-80
2021/01/10 02:25:57;;;;;;;4.85;3.83;;;;;;;6.33;68.12;93790.75;4962419;28;20130;-78
2021/01/10 02:28:25;;;;;;;5.68;3.30;;;;;;;6.33;67.77;93793.38;4958585;28;20062;-80
2021/01/10 02:30:54;;;;;;;5.22;3.58;;;;;;;6.45;67.62;93808.88;4963020;28;20124;-81
2021/01/10 02:33:32;;;;;;;4.93;3.80;;;;;;;6.52;67.29;93818.06;4957389;28;20039;-79
2021/01/10 02:36:00;;;;;;;6.40;4.53;;;;;;;6.46;67.33;93800.72;4962380;28;20026;-81
2021/01/10 02:38:41;;;;;;;6.38;4.07;;;;;;;6.52;67.14;93823.31;4960508;28;20038;-81
2021/01/10 02:41:32;;;;;;;4.32;3.53;;;;;;;6.50;67.23;93829.88;4963698;28;20409;-82
2021/01/10 02:44:12;;;;;;;5.15;3.78;;;;;;;6.51;67.26;93848.00;4972260;28;20062;-82
2021/01/10 02:46:39;;;;;;;5.22;4.72;;;;;;;6.53;67.18;93845.91;4975791;28;20027;-82
2021/01/10 02:49:04;;;;;;;6.72;6.13;;;;;;;6.59;67.49;93848.53;4976419;28;20047;-81
2021/01/10 02:51:30;;;;;;;5.32;4.82;;;;;;;6.61;66.67;93851.66;4960867;28;20034;-82
2021/01/10 02:53:55;;;;;;;5.10;4.05;;;;;;;6.67;66.63;93853.25;4957677;28;20022;-81
2021/01/10 02:56:21;;;;;;;4.63;4.22;;;;;;;6.68;66.50;93852.22;4965862;28;20030;-81
2021/01/10 02:58:51;;;;;;;7.47;5.93;;;;;;;6.69;66.48;93835.41;4957576;28;20125;-81
2021/01/10 03:01:17;;;;;;;4.45;3.97;;;;;;;6.73;66.40;93828.56;4958053;28;20563;-81
2021/01/10 03:03:43;;;;;;;6.45;3.42;;;;;;;6.69;66.36;93822.28;4962605;28;20084;-80
2021/01/10 03:06:09;;;;;;;4.85;3.70;;;;;;;6.74;65.90;93820.44;4956581;28;20818;-82
2021/01/10 03:08:36;;;;;;;6.10;4.10;;;;;;;6.72;65.82;93824.38;4977463;28;20057;-80
2021/01/10 03:11:02;;;;;;;6.20;3.75;;;;;;;6.77;65.78;93840.91;4961684;28;20535;-80
2021/01/10 03:13:27;;;;;;;4.82;4.25;;;;;;;6.74;65.86;93840.66;4956024;28;20046;-81
2021/01/10 03:15:53;;;;;;;3.65;3.30;;;;;;;6.70;65.72;93835.13;4959441;28;20109;-80
2021/01/10 03:18:21;;;;;;;3.42;3.13;;;;;;;6.68;66.01;93841.69;4959709;28;20050;-80
2021/01/10 03:20:48;;;;;;;4.10;3.70;;;;;;;6.62;66.10;93853.25;4960839;28;20023;-80
2021/01/10 03:23:14;;;;;;;3.53;3.22;;;;;;;6.61;66.28;93862.16;4958251;28;20038;-80
2021/01/10 03:25:40;;;;;;;3.65;3.03;;;;;;;6.46;66.62;93849.81;4959254;28;20053;-78
2021/01/10 03:28:05;;;;;;;4.22;3.67;;;;;;;6.44;66.65;93852.72;4957687;28;20039;-80
2021/01/10 03:30:32;;;;;;;4.43;3.25;;;;;;;6.45;66.94;93864.00;4958407;28;20050;-82
2021/01/10 03:32:58;;;;;;;6.22;3.58;;;;;;;6.59;66.45;93864.28;4955548;28;20030;-82
2021/01/10 03:35:25;;;;;;;4.55;4.15;;;;;;;6.62;66.59;93869.00;4960131;28;20030;-82
2021/01/10 03:37:50;;;;;;;3.35;3.05;;;;;;;6.57;66.42;93863.75;4956457;28;20100;-80
2021/01/10 03:40:16;;;;;;;65.95;9.02;;;;;;;6.62;66.46;93863.75;4960140;28;20043;-81
2021/01/10 03:42:42;;;;;;;5.88;4.35;;;;;;;6.49;67.16;93844.06;4954717;28;20046;-82
2021/01/10 03:45:10;;;;;;;10.38;6.50;;;;;;;6.68;67.26;93862.72;4955984;28;20592;-82
2021/01/10 03:47:36;;;;;;;4.70;4.18;;;;;;;6.67;67.05;93854.03;4961154;28;20030;-81
2021/01/10 03:50:03;;;;;;;4.45;3.75;;;;;;;6.63;66.23;93858.25;4960812;28;20405;-82
2021/01/10 03:52:29;;;;;;;4.80;4.40;;;;;;;6.57;66.23;93846.16;4961770;28;20092;-82
2021/01/10 03:54:58;;;;;;;6.00;4.85;;;;;;;6.63;66.40;93844.31;4961263;28;20058;-82
2021/01/10 03:57:23;;;;;;;5.20;4.65;;;;;;;6.63;66.39;93844.31;4961051;28;20046;-81
2021/01/10 03:59:48;;;;;;;5.15;4.60;;;;;;;6.70;66.55;93842.22;4960837;28;20038;-81
2021/01/10 04:02:14;;;;;;;10.88;4.40;;;;;;;6.62;66.38;93819.91;4963747;28;20992;-81
2021/01/10 04:04:40;;;;;;;4.32;3.92;;;;;;;6.72;66.34;93842.75;4961229;28;20498;-82
2021/01/10 04:07:07;;;;;;;7.40;4.72;;;;;;;6.69;65.98;93841.44;4957901;28;20035;-82
2021/01/10 04:09:33;;;;;;;6.00;5.22;;;;;;;6.67;66.16;93846.16;4959283;28;20455;-81
2021/01/10 04:11:58;;;;;;;6.55;3.92;;;;;;;6.73;65.76;93849.59;4956468;28;20023;-81
2021/01/10 04:14:24;;;;;;;5.80;4.40;;;;;;;6.62;65.38;93834.88;4960242;28;20491;-79
2021/01/10 04:16:52;;;;;;;5.90;5.28;;;;;;;6.62;65.69;93848.00;4956973;28;20410;-79
2021/01/10 04:19:17;;;;;;;11.27;10.18;;;;;;;6.61;65.78;93844.56;4957426;28;20047;-80
2021/01/10 04:21:43;;;;;;;8.10;6.35;;;;;;;6.61;66.01;93852.47;4961208;28;20110;-79
2021/01/10 04:24:08;;;;;;;6.63;5.45;;;;;;;6.60;66.28;93850.13;4959475;28;20658;-80
2021/01/10 04:26:38;;;;;;;6.85;6.13;;;;;;;6.51;66.25;93840.09;4963120;28;20240;-79
2021/01/10 04:29:04;;;;;;;7.07;6.32;;;;;;;6.57;66.24;93853.25;4958027;28;20046;-80
2021/01/10 04:31:30;;;;;;;8.95;6.38;;;;;;;6.60;66.25;93863.25;4958175;28;20042;-80
2021/01/10 04:33:56;;;;;;;9.07;6.68;;;;;;;6.64;66.15;93851.16;4972268;28;20047;-78
2021/01/10 04:36:21;;;;;;;9.38;7.35;;;;;;;6.65;66.16;93850.09;4972696;28;20038;-80
2021/01/10 04:38:47;;;;;;;9.93;6.07;;;;;;;6.65;66.04;93852.72;4960532;28;20035;-80
2021/01/10 04:41:16;;;;;;;6.25;4.97;;;;;;;6.68;65.96;93858.25;4958086;28;20058;-79
2021/01/10 04:43:41;;;;;;;6.03;4.55;;;;;;;6.75;65.71;93852.72;4952930;28;20566;-80
2021/01/10 04:46:08;;;;;;;4.22;3.83;;;;;;;6.68;65.79;93846.94;4955439;28;20051;-80
2021/01/10 04:48:34;;;;;;;15.45;5.53;;;;;;;6.73;65.70;93844.31;4961415;28;20503;-80
2021/01/10 04:50:59;;;;;;;5.63;4.00;;;;;;;6.62;65.89;93827.00;4956473;28;20030;-80
2021/01/10 04:53:30;;;;;;;5.00;3.58;;;;;;;6.70;65.63;93831.69;4963829;28;20535;-80
2021/01/10 04:56:02;;;;;;;3.97;3.38;;;;;;;6.75;66.00;93842.22;4974298;28;20393;-79
2021/01/10 04:58:29;;;;;;;4.25;3.25;;;;;;;6.75;65.49;93848.25;4956439;28;20069;-80
2021/01/10 05:00:57;;;;;;;5.07;3.83;;;;;;;6.73;65.49;93839.06;4957781;28;20145;-78
2021/01/10 05:03:24;;;;;;;4.50;4.05;;;;;;;6.72;65.58;93843.53;4960122;28;20710;-81
2021/01/10 05:05:50;;;;;;;7.00;3.97;;;;;;;6.71;65.13;93838.53;4955137;28;20144;-80
2021/01/10 05:08:15;;;;;;;6.55;3.80;;;;;;;6.69;65.26;93832.78;4956908;28;20102;-80
2021/01/10 05:10:41;;;;;;;5.25;3.90;;;;;;;6.71;65.38;93841.16;4958761;28;20474;-81
2021/01/10 05:13:07;;;;;;;8.23;5.05;;;;;;;6.75;65.09;93847.47;4955134;28;20517;-80
2021/01/10 05:15:33;;;;;;;6.93;5.53;;;;;;;6.79;65.04;93848.53;4958950;28;21304;-80
2021/01/10 05:18:00;;;;;;;5.07;3.88;;;;;;;6.68;64.85;93841.69;4955978;28;20101;-81
2021/01/10 05:20:30;;;;;;;5.55;4.28;;;;;;;6.76;64.65;93854.28;4965469;28;20103;-80
2021/01/10 05:22:57;;;;;;;7.65;5.05;;;;;;;6.75;64.51;93858.75;4956751;28;20050;-79
2021/01/10 05:25:23;;;;;;;8.13;5.35;;;;;;;6.71;64.88;93847.22;4974566;28;20039;-81
2021/01/10 05:27:53;;;;;;;5.43;3.97;;;;;;;6.75;64.87;93847.47;4960785;28;20462;-80
2021/01/10 05:30:39;;;;;;;7.80;4.40;;;;;;;6.75;65.38;93850.09;4956025;28;20059;-80
2021/01/10 05:33:08;;;;;;;5.10;4.13;;;;;;;6.75;65.63;93864.00;4950786;28;20066;-81
2021/01/10 05:35:50;;;;;;;6.50;5.35;;;;;;;6.68;65.34;93844.31;4961235;28;20029;-79
2021/01/10 05:38:32;;;;;;;6.63;4.18;;;;;;;6.59;65.21;93856.41;4961073;28;20545;-79
2021/01/10 05:41:01;;;;;;;4.35;3.45;;;;;;;6.53;65.50;93847.72;4959607;28;20042;-79
2021/01/10 05:43:28;;;;;;;4.72;3.65;;;;;;;6.52;65.42;93854.03;4957601;28;20086;-78
2021/01/10 05:45:54;;;;;;;4.10;2.65;;;;;;;6.46;65.63;93866.34;4956558;28;20042;-78
2021/01/10 05:48:20;;;;;;;4.47;3.05;;;;;;;6.42;65.95;93872.38;4956942;28;20062;-79
2021/01/10 05:50:51;;;;;;;4.72;3.67;;;;;;;6.52;65.95;93880.28;4960429;28;20475;-79
2021/01/10 05:53:21;;;;;;;9.18;3.95;;;;;;;6.41;66.04;93874.22;4954352;28;20046;-79
2021/01/10 05:55:55;;;;;;;4.38;3.78;;;;;;;6.57;66.04;93892.63;4958000;28;20047;-79
2021/01/10 05:58:23;;;;;;;4.75;3.58;;;;;;;6.61;65.96;93891.06;4958228;28;20042;-80
2021/01/10 06:00:50;;;;;;;6.13;3.90;;;;;;;6.57;66.04;93887.38;4958412;28;20657;-79
2021/01/10 06:03:17;;;;;;;3.33;2.75;;;;;;;6.50;66.06;93872.66;4955305;28;20126;-78
2021/01/10 06:05:55;;;;;;;4.60;2.85;;;;;;;6.53;65.86;93874.78;4959771;28;20031;-78
2021/01/10 06:08:57;;;;;;;4.05;3.22;;;;;;;6.51;66.01;93879.50;4960856;28;20138;-78
2021/01/10 06:11:25;;;;;;;5.07;3.20;;;;;;;6.50;65.91;93877.91;4961822;28;20038;-79
2021/01/10 06:13:50;;;;;;;5.72;4.03;;;;;;;6.50;65.80;93877.91;4957112;28;20491;-78
2021/01/10 06:16:17;;;;;;;8.80;4.32;;;;;;;6.42;65.85;93881.06;4956989;28;20137;-80
2021/01/10 06:19:04;;;;;;;9.82;5.07;;;;;;;6.51;65.87;93874.25;4960317;28;20448;-80
2021/01/10 06:21:31;;;;;;;11.80;6.07;;;;;;;6.49;65.82;93871.09;4961031;28;20042;-80
2021/01/10 06:24:04;;;;;;;9.45;4.57;;;;;;;6.48;65.47;93884.47;4955430;28;20498;-80
2021/01/10 06:26:31;;;;;;;6.70;4.30;;;;;;;6.56;65.31;93880.53;4964009;28;20114;-80
2021/01/10 06:29:02;;;;;;;6.80;4.28;;;;;;;6.53;65.45;93892.38;4963524;28;20042;-80
2021/01/10 06:31:30;;;;;;;6.25;4.57;;;;;;;6.57;65.51;93893.41;4958795;28;20043;-81
2021/01/10 06:34:01;;;;;;;7.78;3.83;;;;;;;6.50;65.52;93862.16;4961598;28;20050;-79
2021/01/10 06:36:30;;;;;;;5.63;4.38;;;;;;;6.60;65.50;93858.00;4962046;28;20155;-81
2021/01/10 06:39:04;;;;;;;6.32;4.00;;;;;;;6.64;65.43;93856.41;4974801;28;20215;-79
2021/01/10 06:41:36;;;;;;;5.80;3.67;;;;;;;6.72;65.26;93887.38;4962703;28;20031;-80
2021/01/10 06:44:08;;;;;;;4.35;3.60;;;;;;;6.71;65.07;93898.94;4958949;28;20632;-80
2021/01/10 06:46:35;;;;;;;4.03;3.60;;;;;;;6.76;64.96;93917.31;4959420;28;20101;-79
2021/01/10 06:49:01;;;;;;;4.43;3.55;;;;;;;6.68;65.43;93912.59;4962009;28;20713;-80
2021/01/10 06:51:29;;;;;;;3.88;3.25;;;;;;;6.67;65.65;93919.69;4958556;28;20139;-80
2021/01/10 06:53:55;;;;;;;5.28;3.70;;;;;;;6.80;65.18;93936.75;4959041;28;20298;-81
2021/01/10 06:56:21;;;;;;;6.43;4.40;;;;;;;6.86;64.75;93912.09;4966886;28;20029;-81
2021/01/10 06:59:11;;;;;;;5.50;3.97;;;;;;;6.88;64.76;93910.78;4959062;28;20042;-80
2021/01/10 07:01:49;;;;;;;4.97;4.45;;;;;;;6.90;64.63;93913.91;4975209;28;20043;-80
2021/01/10 07:04:15;;;;;;;5.05;3.92;;;;;;;6.95;64.69;93921.00;4955870;28;20057;-79
2021/01/10 07:06:44;;;;;;;4.25;3.85;;;;;;;6.84;64.97;93922.09;4974354;28;20049;-81
2021/01/10 07:09:10;;;;;;;6.57;5.20;;;;;;;6.91;65.04;93933.09;4957904;28;20030;-81
2021/01/10 07:11:36;;;;;;;7.28;5.00;;;;;;;6.94;65.61;93929.94;4961618;28;20443;-81
2021/01/10 07:14:05;;;;;;;77.20;41.55;;;;;;;7.00;65.32;93921.00;4961916;28;20035;-81
2021/01/10 07:16:31;;;;;;;7.63;5.18;;;;;;;6.91;65.04;93910.25;4959184;28;20031;-81
2021/01/10 07:18:58;;;;;;;4.22;3.58;;;;;;;6.98;64.86;93931.00;4957001;28;20381;-81
2021/01/10 07:21:39;;;;;;;5.28;3.95;;;;;;;6.92;64.85;93932.06;4960232;28;20167;-82
2021/01/10 07:24:14;;;;;;;5.60;3.97;;;;;;;6.92;64.52;93951.25;4956436;28;20045;-82
2021/01/10 07:26:41;;;;;;;5.80;4.13;;;;;;;6.86;64.28;93940.97;4962057;28;20027;-81
2021/01/10 07:29:26;;;;;;;5.28;4.10;;;;;;;6.91;65.05;93940.97;4960110;28;20102;-83
2021/01/10 07:32:04;;;;;;;5.97;4.90;;;;;;;6.81;64.84;93925.22;4959526;28;20589;-82
2021/01/10 07:34:31;;;;;;;9.40;8.07;;;;;;;6.93;65.18;93939.69;4959137;28;20042;-81
2021/01/10 07:37:00;;;;;;;10.32;8.18;;;;;;;6.97;64.76;93939.94;4975856;28;20058;-82
2021/01/10 07:39:31;;;;;;;7.10;4.88;;;;;;;7.08;64.71;93952.03;4959880;28;20035;-82
2021/01/10 07:42:09;;;;;;;7.97;4.45;;;;;;;7.05;64.54;93946.50;4960228;28;20031;-79
2021/01/10 07:44:55;;;;;;;6.70;5.07;;;;;;;7.11;64.38;93953.34;4975805;28;20027;-80
2021/01/10 07:47:42;;;;;;;5.75;4.32;;;;;;;7.18;64.30;93951.25;4959901;28;20495;-79
2021/01/10 07:50:16;;;;;;;6.80;4.72;;;;;;;7.21;64.32;93935.75;4959074;28;20607;-79
2021/01/10 07:52:41;;;;;;;5.47;4.20;;;;;;;7.27;64.68;93928.63;4961413;28;20091;-78
2021/01/10 07:55:17;;;;;;;9.68;4.22;;;;;;;7.38;63.96;93946.75;4950075;28;20182;-79
2021/01/10 07:58:01;;;;;;;8.75;5.25;;;;;;;7.39;63.76;93952.81;4958593;28;20371;-79
2021/01/10 08:00:28;;;;;;;9.48;6.22;;;;;;;7.41;64.27;93942.81;4955990;28;20426;-79
2021/01/10 08:03:08;;;;;;;6.90;5.80;;;;;;;7.43;63.83;93940.69;4955446;28;20034;-78
2021/01/10 08:05:54;;;;;;;8.18;5.55;;;;;;;7.47;63.41;93943.59;4968307;28;20701;-79
2021/01/10 08:08:34;;;;;;;10.73;6.25;;;;;;;7.49;63.34;93957.25;4958716;28;20058;-80
2021/01/10 08:11:08;;;;;;;8.85;6.25;;;;;;;7.53;63.22;93958.31;4952923;28;21004;-82
2021/01/10 08:16:36;;;;;;;13.65;10.18;;;;;;;7.49;63.00;93957.25;4926146;28;20066;-81
2021/01/10 08:19:08;;;;;;;14.35;11.90;;;;;;;7.56;63.07;93957.78;4942758;28;20038;-79
2021/01/10 08:21:33;;;;;;;13.85;11.65;;;;;;;7.51;62.88;93945.44;4936333;28;20062;-80
2021/01/10 08:23:59;;;;;;;11.10;9.85;;;;;;;7.53;62.63;93943.31;4946786;28;20026;-79
2021/01/10 08:26:25;;;;;;;13.88;9.15;;;;;;;7.55;62.23;93948.31;4953628;28;20049;-79
2021/01/10 08:28:56;;;;;;;11.27;8.68;;;;;;;7.63;62.12;93966.19;4952865;28;20097;-80
2021/01/10 08:31:23;;;;;;;10.23;8.23;;;;;;;7.63;61.83;93969.59;4950088;28;20046;-80
2021/01/10 08:34:01;;;;;;;14.35;7.93;;;;;;;7.63;61.72;93961.72;4955195;28;20046;-80
2021/01/10 08:36:28;;;;;;;9.20;7.40;;;;;;;7.59;61.80;93967.75;4946703;28;20340;-79
2021/01/10 08:38:56;;;;;;;10.32;7.22;;;;;;;7.63;61.81;93964.34;4947563;28;20037;-78
2021/01/10 08:41:26;;;;;;;7.75;5.38;;;;;;;7.64;61.85;93965.91;4951506;28;20106;-79
2021/01/10 08:43:54;;;;;;;8.68;5.38;;;;;;;7.55;61.71;93951.75;4949314;28;20129;-79
2021/01/10 08:46:20;;;;;;;7.03;5.68;;;;;;;7.61;61.43;93966.47;4948040;28;20050;-81
2021/01/10 08:48:46;;;;;;;9.10;5.75;;;;;;;7.58;61.27;93971.44;4952507;28;20043;-83
2021/01/10 08:51:27;;;;;;;7.57;5.72;;;;;;;7.57;61.39;93989.09;4945858;28;20142;-82
2021/01/10 08:53:52;;;;;;;7.97;5.93;;;;;;;7.60;61.21;93995.66;4950486;28;20038;-83
2021/01/10 08:56:20;;;;;;;7.15;5.85;;;;;;;7.61;61.34;93986.72;4946955;28;20074;-83
2021/01/10 08:58:46;;;;;;;7.80;5.90;;;;;;;7.60;61.56;93982.50;4948224;28;20102;-83
2021/01/10 09:01:19;;;;;;;9.80;6.00;;;;;;;7.63;61.81;93977.50;4947209;28;20062;-83
2021/01/10 09:04:05;;;;;;;10.57;7.72;;;;;;;7.65;61.88;93966.72;4947429;28;20101;-83
2021/01/10 09:07:07;;;;;;;9.55;8.15;;;;;;;7.77;61.80;93978.50;4946114;28;20054;-84
2021/01/10 09:09:47;;;;;;;9.75;7.45;;;;;;;7.78;61.42;93974.03;4943512;28;20043;-83
2021/01/10 09:12:30;;;;;;;9.75;7.43;;;;;;;7.70;61.29;93953.56;4949580;28;20022;-78
2021/01/10 09:15:00;;;;;;;10.98;7.35;;;;;;;7.58;61.91;93945.16;4948026;28;20110;-77
2021/01/10 09:17:35;;;;;;;9.88;7.65;;;;;;;7.61;62.18;93936.75;4950444;28;20030;-78
2021/01/10 09:20:14;;;;;;;10.27;9.18;;;;;;;7.73;62.19;93950.38;4963590;28;20055;-78
2021/01/10 09:22:40;;;;;;;14.85;10.85;;;;;;;7.64;61.85;93939.63;4941649;28;21774;-78
2021/01/10 09:25:15;;;;;;;10.02;7.97;;;;;;;7.62;62.07;93959.38;4948321;28;20053;-77
2021/01/10 09:28:00;;;;;;;;;;;;;;;7.65;62.11;93966.72;4951223;28;20570;-77
2021/01/10 09:30:29;;;;;;;11.70;8.52;;;;;;;7.62;62.13;93972.50;4962103;28;19926;-76
2021/01/10 09:32:55;;;;;;;12.18;9.57;;;;;;;7.66;61.93;93947.25;4948975;28;20229;-77
2021/01/10 09:35:20;;;;;;;12.02;9.93;;;;;;;7.76;62.20;93939.34;4950630;28;20014;-76
2021/01/10 09:37:48;;;;;;;11.85;9.77;;;;;;;7.85;62.58;93935.09;4948640;28;20117;-76
2021/01/10 09:40:14;;;;;;;9.65;6.72;;;;;;;7.86;62.06;93936.69;4946171;28;20023;-77
2021/01/10 09:42:50;;;;;;;8.85;5.97;;;;;;;7.77;61.56;93930.41;4954371;28;20596;-78
2021/01/10 09:45:16;;;;;;;7.10;5.88;;;;;;;7.81;61.80;93934.84;4949845;28;20528;-78
2021/01/10 09:47:42;;;;;;;12.85;7.47;;;;;;;7.82;61.72;93930.34;4953459;28;20031;-79
2021/01/10 09:50:15;;;;;;;8.77;6.13;;;;;;;8.00;61.88;93948.22;4947413;28;20082;-80
2021/01/10 09:52:52;;;;;;;10.52;7.05;;;;;;;7.94;61.44;93949.28;4950317;28;20051;-79
2021/01/10 09:55:25;;;;;;;11.45;8.55;;;;;;;7.85;61.53;93932.47;4948847;28;20035;-79
2021/01/10 09:57:57;;;;;;;12.25;7.03;;;;;;;7.92;61.71;93935.59;4954464;28;20034;-80
2021/01/10 10:00:22;;;;;;;8.57;7.47;;;;;;;7.92;61.94;93938.22;4950709;28;20050;-80
2021/01/10 10:02:48;;;;;;;7.38;5.97;;;;;;;7.85;62.07;93919.31;4969993;28;20031;-80
2021/01/10 10:05:17;;;;;;;7.63;5.85;;;;;;;8.00;61.47;93926.38;4953483;28;20134;-80
2021/01/10 10:07:48;;;;;;;6.50;5.50;;;;;;;7.92;61.22;93911.91;4946349;28;20767;-78
2021/01/10 10:10:27;;;;;;;13.48;9.20;;;;;;;7.90;61.48;93898.25;4949637;28;20510;-78
2021/01/10 10:13:04;;;;;;;14.05;7.13;;;;;;;8.00;61.28;93900.84;4953708;28;20047;-78
2021/01/10 10:15:53;;;;;;;14.48;9.98;;;;;;;8.02;61.51;93903.19;4949541;28;20043;-78
2021/01/10 10:18:21;;;;;;;11.73;9.15;;;;;;;7.94;62.02;93880.88;4955158;28;20031;-78
2021/01/10 10:20:47;;;;;;;11.05;7.95;;;;;;;7.94;61.97;93882.69;4955217;28;20061;-76
2021/01/10 10:23:14;;;;;;;6.95;6.25;;;;;;;8.06;61.97;93883.19;4952286;28;21176;-76
2021/01/10 10:25:44;;;;;;;8.35;6.10;;;;;;;8.13;61.75;93873.13;4952472;28;20174;-76
2021/01/10 10:28:10;;;;;;;9.75;6.32;;;;;;;8.09;61.90;93857.13;4962002;28;20098;-76
2021/01/10 10:30:37;;;;;;;8.48;6.65;;;;;;;8.19;61.69;93862.31;4954586;28;20047;-76
2021/01/10 10:33:03;;;;;;;7.93;5.70;;;;;;;8.18;61.19;93859.94;4950603;28;20149;-76
2021/01/10 10:35:29;;;;;;;23.83;14.05;;;;;;;8.04;60.83;93867.66;4971220;28;20533;-76
2021/01/10 10:37:54;;;;;;;20.48;14.80;;;;;;;7.94;61.39;93865.06;4950878;28;20141;-74
2021/01/10 10:40:20;;;;;;;21.98;18.35;;;;;;;7.93;61.81;93858.22;4955317;28;20061;-75
2021/01/10 10:42:47;;;;;;;18.48;15.10;;;;;;;7.97;62.26;93872.41;4949572;28;20109;-76
2021/01/10 10:45:13;;;;;;;16.92;12.20;;;;;;;7.90;62.30;93871.94;4952938;28;20500;-75
2021/01/10 10:47:38;;;;;;;15.82;10.07;;;;;;;7.92;61.97;93867.19;4952588;28;20077;-75
2021/01/10 10:50:06;;;;;;;16.35;12.48;;;;;;;7.92;62.23;93867.19;4954562;28;20035;-75
2021/01/10 10:52:31;;;;;;;16.27;12.05;;;;;;;7.93;62.29;93862.69;4949844;28;20035;-75
2021/01/10 10:54:57;;;;;;;9.85;7.85;;;;;;;7.85;62.56;93866.69;4966558;28;20783;-76
2021/01/10 10:57:22;;;;;;;12.38;7.95;;;;;;;7.80;62.47;93871.97;4949975;28;20047;-75
2021/01/10 10:59:48;;;;;;;12.52;8.20;;;;;;;7.81;62.74;93855.13;4956219;28;20034;-76
2021/01/10 11:02:13;;;;;;;11.63;7.80;;;;;;;7.83;62.40;93853.81;4948331;28;20046;-75
2021/01/10 11:04:41;;;;;;;9.95;7.13;;;;;;;7.77;62.43;93864.63;4950294;28;20093;-76
2021/01/10 11:07:07;;;;;;;8.32;6.60;;;;;;;7.69;62.45;93867.81;4948144;28;20447;-76
2021/01/10 11:09:33;;;;;;;12.65;7.13;;;;;;;7.72;62.41;93873.31;4947840;28;20532;-76
2021/01/10 11:11:59;;;;;;;7.32;5.65;;;;;;;7.67;62.42;93864.66;4945850;28;20049;-76
2021/01/10 11:14:24;;;;;;;7.07;5.63;;;;;;;7.74;62.25;93867.78;4956540;28;20022;-76
2021/01/10 11:16:51;;;;;;;7.72;6.22;;;;;;;7.81;62.39;93855.13;4943115;28;20578;-76
2021/01/10 11:19:20;;;;;;;10.52;6.47;;;;;;;7.88;62.28;93863.50;4953031;28;20066;-76
2021/01/10 11:21:49;;;;;;;9.55;6.00;;;;;;;7.93;62.19;93860.06;4952761;28;20180;-76
2021/01/10 11:24:16;;;;;;;10.80;6.53;;;;;;;7.93;61.94;93857.44;4948481;28;20134;-75
2021/01/10 11:26:45;;;;;;;8.75;5.72;;;;;;;7.92;62.26;93861.91;4972735;28;20066;-75
2021/01/10 11:29:11;;;;;;;9.63;5.43;;;;;;;7.96;61.92;93860.34;4955134;28;20051;-76
2021/01/10 11:31:38;;;;;;;9.48;6.45;;;;;;;7.97;62.02;93850.56;4956614;28;20048;-75
2021/01/10 11:34:10;;;;;;;10.05;6.10;;;;;;;8.07;61.85;93853.16;4951394;28;20389;-75
2021/01/10 11:36:40;;;;;;;7.57;6.35;;;;;;;8.01;61.81;93844.53;4956530;28;20039;-74
2021/01/10 11:39:06;;;;;;;10.55;6.50;;;;;;;8.06;62.03;93843.72;4953738;28;20113;-75
2021/01/10 11:41:31;;;;;;;14.43;8.77;;;;;;;8.05;62.10;93835.03;4956878;28;20034;-75
2021/01/10 11:43:57;;;;;;;13.27;10.18;;;;;;;8.00;62.39;93831.63;4955770;28;20459;-75
2021/01/10 11:46:23;;;;;;;12.75;9.18;;;;;;;7.99;62.38;93825.56;4951597;28;20090;-75
2021/01/10 11:48:49;;;;;;;11.50;8.98;;;;;;;7.97;62.02;93814.53;4956902;28;20035;-75
2021/01/10 11:51:16;;;;;;;11.75;8.77;;;;;;;7.88;62.13;93803.00;4952091;28;20038;-75